Time;durP1;ratioP1;P1;durP2;ratioP2;P2;SDS_P1;SDS_P2;PMS_P1;PMS_P2;Temp;Humidity;BMP_temperature;BMP_pressure;BME280_temperature;BME280_humidity;BME280_pressure;Samples;Min_cycle;Max_cycle;Signal;HPM_P1;HPM_P2
2021/05/18 00:01:05;;;;;;;2.28;1.20;;;12.60;99.90;;;;;;5109097;27;20987;-83
2021/05/18 00:03:32;;;;;;;2.08;1.10;;;12.50;99.90;;;;;;5099655;28;20399;-83
2021/05/18 00:06:01;;;;;;;3.42;1.00;;;12.50;99.90;;;;;;5105057;28;20739;-85
2021/05/18 00:08:29;;;;;;;1.80;1.10;;;12.60;99.90;;;;;;5085544;28;20396;-85
2021/05/18 00:13:54;;;;;;;3.30;1.20;;;12.90;99.90;;;;;;5107521;28;20480;-85
2021/05/18 00:16:22;;;;;;;2.78;1.25;;;13.40;99.90;;;;;;5109441;28;20398;-86
2021/05/18 00:18:49;;;;;;;3.33;0.90;;;13.80;99.90;;;;;;5107057;28;20761;-85
2021/05/18 00:21:16;;;;;;;2.30;1.13;;;14.10;98.90;;;;;;5084145;28;20398;-83
2021/05/18 00:23:43;;;;;;;4.10;0.95;;;14.90;98.00;;;;;;5086943;28;20884;-85
2021/05/18 00:26:10;;;;;;;2.15;1.02;;;15.10;97.30;;;;;;5121626;27;20398;-85
2021/05/18 00:28:38;;;;;;;4.38;1.50;;;14.70;97.60;;;;;;5106794;28;20387;-85
2021/05/18 00:31:06;;;;;;;2.67;1.40;;;14.30;98.20;;;;;;5092068;28;20378;-86
2021/05/18 00:33:33;;;;;;;3.22;1.38;;;14.00;98.60;;;;;;5093545;28;20390;-83
2021/05/18 00:36:01;;;;;;;4.45;1.40;;;13.80;99.60;;;;;;5108584;28;20383;-86
2021/05/18 00:38:28;;;;;;;4.13;1.42;;;13.70;99.90;;;;;;5109915;28;20988;-86
2021/05/18 00:40:56;;;;;;;6.50;1.77;;;13.70;99.60;;;;;;5080639;28;20883;-85
2021/05/18 00:43:23;;;;;;;3.42;1.50;;;13.60;99.90;;;;;;5106064;28;20424;-85
2021/05/18 00:45:50;;;;;;;2.72;1.30;;;13.70;99.90;;;;;;5109571;28;20888;-85
2021/05/18 00:48:21;;;;;;;3.05;1.40;;;13.90;99.90;;;;;;5096054;28;20383;-85
2021/05/18 00:50:55;;;;;;;5.28;1.20;;;14.00;99.80;;;;;;5098626;28;20871;-86
2021/05/18 00:53:23;;;;;;;2.53;1.37;;;14.20;98.70;;;;;;5112417;28;20426;-86
2021/05/18 00:55:59;;;;;;;3.67;1.27;;;14.20;97.90;;;;;;5111458;28;20387;-85
2021/05/18 00:58:34;;;;;;;1.80;1.10;;;14.20;97.90;;;;;;5110066;28;20401;-85
2021/05/18 01:01:04;;;;;;;4.43;1.20;;;14.10;97.90;;;;;;5088947;28;20443;-86
2021/05/18 01:03:36;;;;;;;2.90;1.15;;;14.10;98.00;;;;;;5092762;28;20723;-87
2021/05/18 01:08:57;;;;;;;5.05;1.50;;;14.30;97.50;;;;;;5101613;28;20436;-85
2021/05/18 01:11:27;;;;;;;2.20;1.40;;;14.30;97.80;;;;;;5107531;28;20389;-85
2021/05/18 01:13:59;;;;;;;2.75;1.50;;;14.30;98.00;;;;;;5109757;28;20415;-85
2021/05/18 01:16:31;;;;;;;3.00;1.40;;;14.30;97.70;;;;;;5109536;28;20870;-84
2021/05/18 01:18:58;;;;;;;2.83;1.35;;;14.30;97.00;;;;;;5083559;28;20434;-84
2021/05/18 01:21:26;;;;;;;5.37;1.50;;;14.40;97.30;;;;;;5093586;28;20892;-85
2021/05/18 01:23:54;;;;;;;4.40;1.35;;;14.30;97.10;;;;;;5108406;28;20440;-86
2021/05/18 01:26:21;;;;;;;3.33;1.50;;;14.40;97.70;;;;;;5108727;28;20371;-85
2021/05/18 01:28:48;;;;;;;6.70;1.58;;;14.60;97.00;;;;;;5095738;28;20398;-85
2021/05/18 01:31:19;;;;;;;2.92;1.63;;;14.70;96.80;;;;;;5112121;28;20400;-86
2021/05/18 01:33:47;;;;;;;3.72;1.48;;;14.70;96.90;;;;;;5109571;28;20379;-84
2021/05/18 01:36:17;;;;;;;6.55;1.58;;;14.80;96.80;;;;;;5110568;28;20422;-83
2021/05/18 01:44:03;;;;;;;2.38;1.60;;;15.00;96.60;;;;;;5102945;28;20479;-84
2021/05/18 01:46:30;;;;;;;3.80;1.30;;;15.10;95.80;;;;;;5090999;28;20815;-86
2021/05/18 01:49:00;;;;;;;2.47;1.30;;;15.10;95.90;;;;;;5108782;28;20391;-84
2021/05/18 01:51:30;;;;;;;2.45;1.33;;;15.20;95.20;;;;;;5101614;28;20424;-82
2021/05/18 01:53:59;;;;;;;2.53;1.30;;;15.10;95.30;;;;;;5088372;28;20453;-85
2021/05/18 01:56:37;;;;;;;2.05;1.17;;;15.30;95.10;;;;;;5100292;28;20406;-84
2021/05/18 01:59:06;;;;;;;3.20;1.40;;;15.30;95.30;;;;;;5105256;28;20414;-85
2021/05/18 02:01:33;;;;;;;1.73;1.10;;;15.40;94.70;;;;;;5098662;28;20427;-85
2021/05/18 02:04:00;;;;;;;1.85;1.20;;;15.50;94.30;;;;;;5110539;27;20473;-85
2021/05/18 02:06:28;;;;;;;4.38;1.15;;;15.50;93.80;;;;;;5096468;28;20447;-84
2021/05/18 02:08:57;;;;;;;1.90;1.00;;;15.40;93.90;;;;;;5103867;28;20379;-84
2021/05/18 02:11:24;;;;;;;1.23;1.00;;;15.50;94.30;;;;;;5107409;28;20394;-84
2021/05/18 02:14:04;;;;;;;3.58;1.25;;;15.50;94.20;;;;;;5093324;28;20504;-84
2021/05/18 02:16:35;;;;;;;3.55;1.27;;;15.50;93.80;;;;;;5118179;27;20894;-85
2021/05/18 02:19:19;;;;;;;2.75;1.00;;;15.60;94.50;;;;;;5114210;28;20398;-84
2021/05/18 02:27:02;;;;;;;2.70;1.30;;;15.80;94.60;;;;;;5112713;28;20381;-87
2021/05/18 02:29:29;;;;;;;2.60;1.00;;;16.00;94.40;;;;;;5113585;28;20394;-89
2021/05/18 02:31:57;;;;;;;2.63;1.08;;;16.10;94.10;;;;;;5116301;28;20366;-85
2021/05/18 02:34:24;;;;;;;4.22;1.02;;;16.10;93.50;;;;;;5113680;28;20477;-85
2021/05/18 02:36:51;;;;;;;1.85;1.40;;;16.10;93.30;;;;;;5114268;28;20387;-84
2021/05/18 02:39:18;;;;;;;3.53;0.95;;;16.10;93.70;;;;;;5113595;28;20390;-84
2021/05/18 02:41:45;;;;;;;1.60;1.20;;;16.10;93.80;;;;;;5113208;28;20401;-85
2021/05/18 02:44:24;;;;;;;2.85;1.08;;;16.10;93.40;;;;;;5113794;28;20383;-85
2021/05/18 02:49:36;;;;;;;3.17;1.23;;;16.20;93.80;;;;;;5101284;28;20394;-85
2021/05/18 02:52:04;;;;;;;2.17;1.30;;;16.30;93.90;;;;;;5123520;27;20391;-85
2021/05/18 02:54:31;;;;;;;2.92;1.40;;;16.40;92.40;;;;;;5113065;27;20387;-85
2021/05/18 02:57:02;;;;;;;2.65;1.23;;;16.40;93.00;;;;;;5113298;28;20444;-85
2021/05/18 02:59:29;;;;;;;1.90;1.40;;;16.40;92.50;;;;;;5110676;28;20395;-83
2021/05/18 03:01:58;;;;;;;2.55;1.23;;;16.40;93.00;;;;;;5112163;28;20378;-84
2021/05/18 03:04:26;;;;;;;2.90;1.10;;;16.40;93.10;;;;;;5111043;28;20401;-85
2021/05/18 03:06:54;;;;;;;1.35;0.90;;;16.40;93.30;;;;;;5111213;28;20391;-85
2021/05/18 03:09:24;;;;;;;2.10;1.00;;;16.40;93.80;;;;;;5111538;28;20453;-83
2021/05/18 03:11:53;;;;;;;1.45;1.00;;;16.50;93.50;;;;;;5098454;28;20386;-83
2021/05/18 03:14:21;;;;;;;2.30;1.10;;;16.60;92.80;;;;;;5104745;28;20398;-84
2021/05/18 03:16:49;;;;;;;2.20;1.05;;;16.60;92.10;;;;;;5105391;28;20402;-85
2021/05/18 03:19:16;;;;;;;2.85;0.90;;;16.70;92.30;;;;;;5110284;28;21750;-83
2021/05/18 03:21:44;;;;;;;5.45;0.80;;;16.70;91.60;;;;;;5109801;28;20382;-86
2021/05/18 03:24:13;;;;;;;1.30;0.75;;;16.80;91.20;;;;;;5102768;28;20553;-86
2021/05/18 03:26:46;;;;;;;1.20;0.80;;;16.80;91.40;;;;;;5103784;28;20470;-85
2021/05/18 03:34:38;;;;;;;2.83;0.70;;;16.80;92.70;;;;;;5111504;28;20848;-87
2021/05/18 03:37:29;;;;;;;0.93;0.82;;;16.70;92.20;;;;;;5110687;28;20807;-87
2021/05/18 03:40:01;;;;;;;2.38;0.88;;;16.80;91.60;;;;;;5110175;28;20382;-87
2021/05/18 03:42:33;;;;;;;3.95;1.10;;;16.80;92.30;;;;;;5091759;28;20877;-84
2021/05/18 03:45:14;;;;;;;1.63;0.80;;;16.70;92.70;;;;;;5094277;28;20399;-85
2021/05/18 04:04:19;;;;;;;1.38;0.80;;;17.00;91.70;;;;;;5111733;28;20379;-87
2021/05/18 04:24:17;;;;;;;0.95;0.70;;;16.80;92.90;;;;;;5105944;28;20392;-86
2021/05/18 04:51:56;;;;;;;3.03;1.75;;;16.60;93.90;;;;;;5096385;28;20879;-84
2021/05/18 04:59:57;;;;;;;1.90;0.60;;;16.70;92.60;;;;;;5107193;28;20436;-83
2021/05/18 05:02:50;;;;;;;1.83;0.50;;;16.50;93.60;;;;;;5102383;27;20409;-84
2021/05/18 05:08:07;;;;;;;0.60;0.60;;;16.30;94.50;;;;;;5102249;27;20399;-84
2021/05/18 05:15:40;;;;;;;1.05;0.55;;;16.20;94.20;;;;;;5104602;28;20437;-83
2021/05/18 05:18:07;;;;;;;2.08;0.80;;;16.20;94.30;;;;;;5106889;28;20417;-83
2021/05/18 05:20:35;;;;;;;0.73;0.60;;;16.20;95.20;;;;;;5108218;28;20381;-84
2021/05/18 05:23:03;;;;;;;1.60;0.70;;;16.10;94.80;;;;;;5095647;28;20892;-83
2021/05/18 05:25:31;;;;;;;2.08;0.60;;;16.10;94.80;;;;;;5107662;28;20473;-83
2021/05/18 05:27:58;;;;;;;1.02;0.50;;;16.10;94.10;;;;;;5109144;28;20891;-83
2021/05/18 05:30:25;;;;;;;1.10;0.40;;;16.00;94.90;;;;;;5090212;28;20401;-82
2021/05/18 05:32:52;;;;;;;1.52;0.50;;;16.00;95.00;;;;;;5106051;27;20423;-83
2021/05/18 05:35:19;;;;;;;1.77;0.57;;;15.90;94.90;;;;;;5108162;27;20733;-83
2021/05/18 05:37:46;;;;;;;1.48;0.68;;;15.90;95.30;;;;;;5106611;28;20528;-83
2021/05/18 05:40:13;;;;;;;1.83;0.43;;;15.80;94.90;;;;;;5092425;28;20515;-83
2021/05/18 05:42:40;;;;;;;0.85;0.55;;;15.80;95.40;;;;;;5098378;28;20475;-82
2021/05/18 05:45:08;;;;;;;1.48;0.60;;;15.80;95.30;;;;;;5106550;28;20392;-83
2021/05/18 05:47:35;;;;;;;1.58;0.50;;;15.70;95.10;;;;;;5104154;28;20885;-83
2021/05/18 05:50:02;;;;;;;0.85;0.43;;;15.70;95.60;;;;;;5102591;28;20378;-85
2021/05/18 05:52:32;;;;;;;2.72;0.60;;;15.70;96.20;;;;;;5107724;28;20394;-85
2021/05/18 05:54:59;;;;;;;2.13;0.45;;;15.70;94.90;;;;;;5107392;28;20735;-84
2021/05/18 05:57:26;;;;;;;3.70;0.60;;;15.70;95.60;;;;;;5104714;28;20403;-83
2021/05/18 05:59:53;;;;;;;1.60;0.57;;;15.70;95.60;;;;;;5110984;28;20386;-84
2021/05/18 06:02:20;;;;;;;2.78;0.70;;;15.60;95.80;;;;;;5110535;28;20410;-84
2021/05/18 06:04:47;;;;;;;2.10;0.70;;;15.50;96.50;;;;;;5109678;28;20729;-83
2021/05/18 06:07:14;;;;;;;1.50;0.73;;;15.50;96.30;;;;;;5107829;28;20382;-84
2021/05/18 06:09:42;;;;;;;1.52;0.52;;;15.50;96.10;;;;;;5098236;28;20396;-83
2021/05/18 06:15:08;;;;;;;1.33;0.70;;;15.40;96.20;;;;;;5101224;28;20470;-83
2021/05/18 06:42:23;;;;;;;1.38;0.77;;;14.70;99.90;;;;;;5108017;28;20497;-83
2021/05/18 06:47:38;;;;;;;2.05;0.95;;;14.50;99.90;;;;;;5110177;28;20384;-82
2021/05/18 06:52:45;;;;;;;4.10;1.20;;;14.40;99.90;;;;;;5109953;28;20933;-82
2021/05/18 06:55:24;;;;;;;1.55;0.95;;;14.30;99.90;;;;;;5090490;28;20456;-81
2021/05/18 06:57:59;;;;;;;1.27;1.10;;;14.10;99.90;;;;;;5092111;28;20403;-82
2021/05/18 07:00:26;;;;;;;2.73;1.13;;;14.00;99.90;;;;;;5091949;28;20386;-82
2021/05/18 07:02:56;;;;;;;1.95;1.00;;;13.90;99.90;;;;;;5110400;28;20934;-82
2021/05/18 07:05:37;;;;;;;3.05;1.30;;;13.90;99.90;;;;;;5110707;28;20736;-84
2021/05/18 07:10:48;;;;;;;2.70;1.13;;;13.70;99.90;;;;;;5110123;28;20727;-83
2021/05/18 07:13:15;;;;;;;2.05;1.05;;;13.70;99.90;;;;;;5110422;28;20855;-83
2021/05/18 07:15:43;;;;;;;3.22;1.13;;;13.60;99.90;;;;;;5109476;28;20887;-83
2021/05/18 07:18:10;;;;;;;2.57;1.27;;;13.50;99.90;;;;;;5108984;28;20811;-82
2021/05/18 07:20:37;;;;;;;3.90;1.33;;;13.40;99.90;;;;;;5110215;27;20375;-83
2021/05/18 07:23:24;;;;;;;2.92;1.10;;;13.30;99.90;;;;;;5129567;27;20419;-82
2021/05/18 07:25:52;;;;;;;2.13;1.20;;;13.30;99.90;;;;;;5130600;27;20711;-83
2021/05/18 07:28:20;;;;;;;3.10;1.20;;;13.20;99.90;;;;;;5112034;27;20388;-83
2021/05/18 07:30:49;;;;;;;2.40;1.20;;;13.20;99.90;;;;;;5106956;27;20578;-84
2021/05/18 07:33:16;;;;;;;2.87;1.30;;;13.20;99.90;;;;;;5105933;28;20396;-84
2021/05/18 07:35:45;;;;;;;4.15;1.38;;;13.20;99.90;;;;;;5105793;28;20762;-82
2021/05/18 07:38:13;;;;;;;2.65;1.20;;;13.10;99.90;;;;;;5107358;28;20407;-83
2021/05/18 07:40:40;;;;;;;2.63;1.58;;;13.00;99.90;;;;;;5108236;28;21142;-83
2021/05/18 07:43:13;;;;;;;4.68;1.55;;;13.00;99.90;;;;;;5089539;28;20516;-82
2021/05/18 07:45:48;;;;;;;2.88;1.33;;;12.90;99.90;;;;;;5106323;28;20478;-81
2021/05/18 07:48:27;;;;;;;1.55;1.15;;;12.90;99.90;;;;;;5086437;28;20387;-81
2021/05/18 07:51:09;;;;;;;1.60;1.13;;;12.80;99.90;;;;;;5106133;28;20395;-81
2021/05/18 08:07:23;;;;;;;4.15;3.22;;;12.60;99.90;;;;;;5105200;28;20396;-81
2021/05/18 08:12:36;;;;;;;4.63;3.55;;;12.40;99.90;;;;;;5107102;28;20377;-81
2021/05/18 08:17:40;;;;;;;2.92;2.10;;;12.30;99.90;;;;;;5108991;28;20441;-82
2021/05/18 10:36:32;;;;;;;3.70;2.20;;;11.00;99.90;;;;;;5106808;28;20447;-85
2021/05/18 10:39:26;;;;;;;3.85;1.95;;;11.00;99.90;;;;;;5104592;27;20386;-86
2021/05/18 10:41:54;;;;;;;4.22;2.17;;;11.00;99.90;;;;;;5107994;28;20390;-86
2021/05/18 10:44:22;;;;;;;6.20;2.10;;;11.00;99.90;;;;;;5108154;28;20386;-85
2021/05/18 10:46:51;;;;;;;4.40;2.00;;;11.00;99.90;;;;;;5087745;28;20815;-84
2021/05/18 10:49:33;;;;;;;6.30;2.33;;;11.00;99.90;;;;;;5107304;28;20435;-82
2021/05/18 10:52:06;;;;;;;6.40;2.00;;;11.00;99.90;;;;;;5105350;28;20378;-82
2021/05/18 10:54:36;;;;;;;6.47;1.95;;;11.00;99.90;;;;;;5088928;28;20521;-81
2021/05/18 10:57:14;;;;;;;3.45;1.92;;;11.00;99.90;;;;;;5105956;28;20749;-80
2021/05/18 10:59:46;;;;;;;5.40;1.90;;;11.00;99.90;;;;;;5089071;28;20413;-81
2021/05/18 11:02:19;;;;;;;4.55;1.80;;;11.00;99.90;;;;;;5107464;28;22170;-82
2021/05/18 11:04:47;;;;;;;8.97;2.00;;;11.00;99.90;;;;;;5107428;28;20477;-80
2021/05/18 11:07:20;;;;;;;4.38;1.85;;;11.00;99.90;;;;;;5087536;28;21674;-82
2021/05/18 11:09:48;;;;;;;4.57;2.25;;;11.00;99.90;;;;;;5107414;28;20427;-83
2021/05/18 11:12:20;;;;;;;4.30;1.83;;;11.00;99.90;;;;;;5108028;27;20783;-83
2021/05/18 11:14:58;;;;;;;7.33;2.20;;;11.00;99.90;;;;;;5089772;28;21773;-81
2021/05/18 11:17:29;;;;;;;6.32;2.13;;;11.00;99.90;;;;;;5108369;28;20884;-82
2021/05/18 11:25:39;;;;;;;4.72;2.00;;;10.80;99.90;;;;;;5105493;28;20909;-81
2021/05/18 11:28:20;;;;;;;4.65;2.20;;;10.70;99.90;;;;;;5103431;28;20840;-81
2021/05/18 11:30:51;;;;;;;4.78;1.75;;;10.70;99.90;;;;;;5102323;28;20440;-82
2021/05/18 11:33:20;;;;;;;4.95;1.70;;;10.70;99.90;;;;;;5107496;28;20452;-82
2021/05/18 11:36:09;;;;;;;7.63;2.40;;;10.60;99.90;;;;;;5108428;28;20478;-82
2021/05/18 11:38:57;;;;;;;5.10;2.08;;;10.60;99.90;;;;;;5100746;27;20406;-81
2021/05/18 11:41:35;;;;;;;4.38;2.47;;;10.60;99.90;;;;;;5114213;27;20469;-81
2021/05/18 11:44:02;;;;;;;3.22;1.77;;;10.60;99.90;;;;;;5108153;28;20478;-81
2021/05/18 11:46:31;;;;;;;5.22;2.30;;;10.60;99.90;;;;;;5100727;28;20449;-82
2021/05/18 11:49:11;;;;;;;4.20;2.25;;;10.50;99.90;;;;;;5097760;28;20409;-82
2021/05/18 11:51:42;;;;;;;3.72;1.83;;;10.50;99.90;;;;;;5096600;28;20391;-82
2021/05/18 11:54:10;;;;;;;3.35;1.90;;;10.50;99.90;;;;;;5107862;28;20443;-81
2021/05/18 11:56:39;;;;;;;4.60;1.98;;;10.40;99.90;;;;;;5104565;28;20371;-81
2021/05/18 11:59:17;;;;;;;3.88;1.80;;;10.30;99.90;;;;;;5096806;28;20392;-81
2021/05/18 12:01:44;;;;;;;5.03;2.00;;;10.40;99.90;;;;;;5097700;28;20391;-80
2021/05/18 12:04:14;;;;;;;6.05;2.28;;;10.40;99.90;;;;;;5093171;28;20403;-81
2021/05/18 12:06:55;;;;;;;4.18;2.10;;;10.50;99.90;;;;;;5101056;28;20894;-81
2021/05/18 12:09:22;;;;;;;5.95;2.00;;;10.50;99.90;;;;;;5104789;28;20394;-80
2021/05/18 12:12:09;;;;;;;3.33;1.90;;;10.40;99.90;;;;;;5099367;28;20444;-81
2021/05/18 12:14:43;;;;;;;5.22;1.98;;;10.40;99.90;;;;;;5107800;28;20393;-80
2021/05/18 12:17:10;;;;;;;6.43;2.43;;;10.40;99.90;;;;;;5102170;28;20411;-81
2021/05/18 12:19:41;;;;;;;8.90;2.60;;;10.50;99.90;;;;;;5098698;28;20494;-81
2021/05/18 12:22:08;;;;;;;6.00;2.60;;;10.50;99.90;;;;;;5102325;28;20391;-81
2021/05/18 12:24:43;;;;;;;9.85;3.53;;;10.60;99.90;;;;;;5093986;28;20854;-80
2021/05/18 12:27:11;;;;;;;8.80;3.50;;;10.60;99.90;;;;;;5109163;28;20912;-81
2021/05/18 12:29:50;;;;;;;6.85;2.92;;;10.60;99.90;;;;;;5104720;28;20422;-81
2021/05/18 12:32:28;;;;;;;6.22;3.70;;;10.60;99.90;;;;;;5107888;28;20787;-81
2021/05/18 12:35:17;;;;;;;9.07;3.70;;;10.60;99.90;;;;;;5106317;28;20549;-80
2021/05/18 12:37:47;;;;;;;6.27;3.80;;;10.50;99.90;;;;;;5088539;28;20499;-80
2021/05/18 12:40:33;;;;;;;5.75;3.60;;;10.50;99.90;;;;;;5106869;28;20469;-80
2021/05/18 12:43:22;;;;;;;7.18;3.65;;;10.40;99.90;;;;;;5107359;28;20378;-80
2021/05/18 12:46:10;;;;;;;4.32;3.35;;;10.40;99.90;;;;;;5107695;28;20391;-80
2021/05/18 12:48:38;;;;;;;5.47;3.20;;;10.40;99.90;;;;;;5107924;28;20389;-80
2021/05/18 12:51:19;;;;;;;6.03;3.00;;;10.40;99.90;;;;;;5103395;28;20722;-80
2021/05/18 12:53:46;;;;;;;3.75;2.53;;;10.50;99.90;;;;;;5106496;28;20383;-80
2021/05/18 12:56:28;;;;;;;4.03;2.58;;;10.50;99.90;;;;;;5108623;28;20460;-81
2021/05/18 12:59:08;;;;;;;3.88;2.53;;;10.50;99.90;;;;;;5090281;28;20800;-80
2021/05/18 13:01:42;;;;;;;4.53;2.45;;;10.50;99.90;;;;;;5099805;28;20462;-80
2021/05/18 13:04:11;;;;;;;3.47;2.80;;;10.40;99.90;;;;;;5107715;28;20444;-82
2021/05/18 13:06:50;;;;;;;3.83;2.87;;;10.40;99.90;;;;;;5107549;28;20375;-80
2021/05/18 13:09:22;;;;;;;5.43;2.60;;;10.20;99.90;;;;;;5088062;28;20399;-80
2021/05/18 13:15:03;;;;;;;3.70;2.75;;;10.30;99.90;;;;;;5107731;28;20398;-80
2021/05/18 13:17:31;;;;;;;4.35;2.25;;;10.40;99.90;;;;;;5106645;28;20466;-81
2021/05/18 13:20:11;;;;;;;5.10;2.90;;;10.40;99.90;;;;;;5094398;28;20456;-80
2021/05/18 13:22:42;;;;;;;7.28;3.50;;;10.40;99.90;;;;;;5100218;28;20374;-81
2021/05/18 13:28:02;;;;;;;6.95;4.57;;;10.10;99.90;;;;;;5112080;28;20370;-80
2021/05/18 13:30:31;;;;;;;7.32;5.47;;;9.90;99.90;;;;;;5109623;28;20469;-80
2021/05/18 13:32:59;;;;;;;7.13;5.70;;;9.80;99.90;;;;;;5111289;28;20845;-80
2021/05/18 13:35:29;;;;;;;5.67;4.90;;;9.60;99.90;;;;;;5110223;28;20393;-80
2021/05/18 13:37:58;;;;;;;7.17;5.73;;;9.50;99.90;;;;;;5089045;28;20489;-80
2021/05/18 13:40:26;;;;;;;6.28;5.10;;;9.30;99.90;;;;;;5109202;28;20743;-80
2021/05/18 13:42:54;;;;;;;6.13;4.55;;;9.20;99.90;;;;;;5109760;28;20389;-80
2021/05/18 13:45:26;;;;;;;7.47;4.30;;;9.20;99.90;;;;;;5109404;28;20478;-79
2021/05/18 13:47:55;;;;;;;6.05;3.85;;;9.20;99.90;;;;;;5110717;28;20398;-80
2021/05/18 13:50:29;;;;;;;6.55;3.65;;;9.20;99.90;;;;;;5104280;28;20387;-80
2021/05/18 13:52:57;;;;;;;4.85;3.30;;;9.20;99.90;;;;;;5110539;28;20388;-80
2021/05/18 13:55:25;;;;;;;6.80;2.97;;;9.20;99.90;;;;;;5088450;27;20417;-80
2021/05/18 13:57:52;;;;;;;5.10;2.80;;;9.20;99.90;;;;;;5109687;28;20810;-81
2021/05/18 14:00:21;;;;;;;6.15;2.67;;;9.30;99.90;;;;;;5091982;28;20391;-80
2021/05/18 14:02:50;;;;;;;4.75;2.70;;;9.20;99.90;;;;;;5100513;28;20483;-80
2021/05/18 14:05:24;;;;;;;4.83;2.60;;;9.20;99.90;;;;;;5108335;28;20389;-79
2021/05/18 14:08:34;;;;;;;4.10;2.20;;;9.20;99.90;;;;;;5109623;28;20410;-82
2021/05/18 14:11:13;;;;;;;3.75;2.70;;;9.30;99.90;;;;;;5104362;28;20398;-81
2021/05/18 14:13:46;;;;;;;5.43;2.45;;;9.30;99.90;;;;;;5106360;28;20393;-82
2021/05/18 14:16:16;;;;;;;4.97;2.40;;;9.30;99.90;;;;;;5095366;28;20483;-81
2021/05/18 14:18:45;;;;;;;3.88;2.22;;;9.40;99.90;;;;;;5110433;28;20450;-81
2021/05/18 14:21:12;;;;;;;4.50;2.15;;;9.50;99.90;;;;;;5108904;28;20386;-81
2021/05/18 14:26:24;;;;;;;5.18;2.42;;;9.60;99.90;;;;;;5107775;28;20846;-80
2021/05/18 14:28:51;;;;;;;6.13;2.88;;;9.60;99.90;;;;;;5104881;28;20427;-80
2021/05/18 14:31:18;;;;;;;5.35;2.83;;;9.40;99.90;;;;;;5105893;28;21199;-81
2021/05/18 14:33:46;;;;;;;6.47;2.97;;;9.40;99.90;;;;;;5098745;28;20383;-82
2021/05/18 14:36:14;;;;;;;4.53;2.35;;;9.40;99.90;;;;;;5110535;28;20505;-80
2021/05/18 14:38:44;;;;;;;5.63;2.80;;;9.30;99.90;;;;;;5108327;28;20413;-80
2021/05/18 14:46:37;;;;;;;5.15;2.70;;;9.00;99.90;;;;;;5096719;28;20445;-81
2021/05/18 14:54:43;;;;;;;5.05;2.35;;;8.90;99.90;;;;;;5101023;27;20390;-81
2021/05/18 14:57:10;;;;;;;4.38;2.20;;;8.90;99.90;;;;;;5106735;27;20402;-81
2021/05/18 14:59:37;;;;;;;5.20;2.30;;;8.80;99.90;;;;;;5104842;27;20398;-80
2021/05/18 15:02:05;;;;;;;7.60;2.40;;;8.90;99.90;;;;;;5109301;28;20437;-81
2021/05/18 15:04:34;;;;;;;5.57;2.33;;;8.90;99.90;;;;;;5099593;28;20396;-81
2021/05/18 15:07:07;;;;;;;3.50;2.00;;;8.80;99.90;;;;;;5107785;28;20406;-80
2021/05/18 15:09:39;;;;;;;4.53;2.40;;;8.70;99.90;;;;;;5105777;28;20415;-80
2021/05/18 15:12:08;;;;;;;7.37;2.43;;;8.70;99.90;;;;;;5084947;28;20438;-81
2021/05/18 15:14:36;;;;;;;5.87;2.40;;;8.70;99.90;;;;;;5095836;28;20390;-81
2021/05/18 15:17:03;;;;;;;5.00;2.30;;;8.70;99.90;;;;;;5090529;28;20402;-81
2021/05/18 15:19:31;;;;;;;5.40;2.67;;;8.60;99.90;;;;;;5108128;28;20447;-81
2021/05/18 15:21:59;;;;;;;5.05;2.40;;;8.60;99.90;;;;;;5100677;28;20394;-81
2021/05/18 15:24:28;;;;;;;8.68;2.95;;;8.50;99.90;;;;;;5107149;28;20411;-81
2021/05/18 15:26:56;;;;;;;4.45;3.20;;;8.50;99.90;;;;;;5103649;28;20397;-81
2021/05/18 15:29:23;;;;;;;3.77;3.10;;;8.40;99.90;;;;;;5105537;28;20875;-81
2021/05/18 15:31:51;;;;;;;6.30;3.40;;;8.40;99.90;;;;;;5106990;28;20390;-81
2021/05/18 15:34:19;;;;;;;6.13;3.50;;;8.40;99.90;;;;;;5094194;28;20391;-81
2021/05/18 15:36:46;;;;;;;6.47;3.53;;;8.30;99.90;;;;;;5109111;28;20898;-81
2021/05/18 15:39:13;;;;;;;7.68;4.18;;;8.30;99.90;;;;;;5108199;28;20811;-81
2021/05/18 15:41:40;;;;;;;6.75;3.35;;;8.20;99.90;;;;;;5107849;28;20487;-81
2021/05/18 15:44:07;;;;;;;6.50;3.50;;;8.20;99.90;;;;;;5102054;28;20392;-81
2021/05/18 15:46:34;;;;;;;5.05;2.97;;;8.30;99.90;;;;;;5084573;28;20382;-81
2021/05/18 15:49:01;;;;;;;7.30;2.97;;;8.40;99.90;;;;;;5105209;28;20461;-81
2021/05/18 15:51:30;;;;;;;7.20;3.30;;;8.40;99.90;;;;;;5101101;28;20398;-81
2021/05/18 15:53:57;;;;;;;4.30;2.50;;;8.40;99.90;;;;;;5107909;28;20378;-81
2021/05/18 15:56:24;;;;;;;6.35;3.22;;;8.40;99.90;;;;;;5100750;28;20459;-81
2021/05/18 15:58:51;;;;;;;8.15;2.80;;;8.40;99.90;;;;;;5102264;28;20435;-81
2021/05/18 16:01:18;;;;;;;7.68;2.72;;;8.50;99.90;;;;;;5101618;28;20395;-80
2021/05/18 16:03:46;;;;;;;4.43;2.90;;;8.50;99.90;;;;;;5094827;28;20503;-81
2021/05/18 16:06:13;;;;;;;6.70;2.72;;;8.60;99.90;;;;;;5090999;28;20390;-81
2021/05/18 16:11:09;;;;;;;5.97;2.95;;;8.50;99.90;;;;;;5101646;28;21213;-81
2021/05/18 16:13:39;;;;;;;6.72;2.70;;;8.50;99.90;;;;;;5100750;28;20862;-81
2021/05/18 16:16:12;;;;;;;6.22;2.65;;;8.40;99.90;;;;;;5107318;28;20482;-81
2021/05/18 16:18:41;;;;;;;6.60;2.50;;;8.40;99.90;;;;;;5102147;28;20497;-82
2021/05/18 16:21:09;;;;;;;4.38;2.10;;;8.40;99.90;;;;;;5103384;28;20524;-82
2021/05/18 16:23:40;;;;;;;4.35;2.50;;;8.40;99.90;;;;;;5103273;28;20403;-82
2021/05/18 16:26:08;;;;;;;6.10;3.22;;;8.50;99.90;;;;;;5089051;28;20481;-82
2021/05/18 16:28:36;;;;;;;4.97;3.35;;;8.50;99.90;;;;;;5101302;28;20386;-81
2021/05/18 16:31:07;;;;;;;6.15;3.70;;;8.40;99.90;;;;;;5103931;28;20422;-82
2021/05/18 16:33:37;;;;;;;4.80;2.90;;;8.30;99.90;;;;;;5099434;28;20380;-81
2021/05/18 16:36:06;;;;;;;5.95;3.25;;;8.30;99.90;;;;;;5108613;28;20399;-81
2021/05/18 16:38:34;;;;;;;5.78;3.47;;;8.20;99.90;;;;;;5107757;28;20460;-81
2021/05/18 16:41:01;;;;;;;4.87;3.17;;;8.20;99.90;;;;;;5105325;28;20379;-81
2021/05/18 16:43:28;;;;;;;6.50;3.78;;;8.10;99.90;;;;;;5104375;28;21406;-81
2021/05/18 16:45:56;;;;;;;5.25;3.45;;;8.00;99.90;;;;;;5083637;28;20390;-81
2021/05/18 16:48:26;;;;;;;5.10;2.95;;;7.90;99.90;;;;;;5107268;28;20395;-81
2021/05/18 16:50:55;;;;;;;6.65;2.92;;;7.90;99.90;;;;;;5104787;28;20471;-81
2021/05/18 16:53:22;;;;;;;6.10;3.30;;;7.90;99.90;;;;;;5102965;28;20411;-81
2021/05/18 16:55:49;;;;;;;5.30;3.58;;;7.90;99.90;;;;;;5107089;28;20386;-81
2021/05/18 16:58:20;;;;;;;7.55;3.70;;;7.90;99.90;;;;;;5101901;28;20411;-82
2021/05/18 17:00:47;;;;;;;9.57;4.28;;;7.90;99.90;;;;;;5104703;28;20378;-82
2021/05/18 17:03:15;;;;;;;6.82;3.88;;;7.80;99.90;;;;;;5110363;28;20586;-81
2021/05/18 17:05:42;;;;;;;7.57;4.68;;;7.80;99.90;;;;;;5098009;28;20447;-81
2021/05/18 17:08:09;;;;;;;8.80;5.10;;;7.80;99.90;;;;;;5110282;28;20473;-81
2021/05/18 17:10:42;;;;;;;11.23;7.30;;;7.70;99.90;;;;;;5106274;28;20389;-82
2021/05/18 17:13:09;;;;;;;10.98;8.55;;;7.60;99.90;;;;;;5110857;28;20469;-81
2021/05/18 17:15:37;;;;;;;13.05;9.02;;;7.40;99.90;;;;;;5107225;28;20464;-81
2021/05/18 17:18:04;;;;;;;13.32;9.80;;;7.30;99.90;;;;;;5091024;28;20406;-80
2021/05/18 17:20:34;;;;;;;12.55;8.70;;;7.10;99.90;;;;;;5114773;27;20463;-81
2021/05/18 17:23:02;;;;;;;12.68;9.15;;;7.00;99.90;;;;;;5113039;27;20390;-80
2021/05/18 17:25:29;;;;;;;11.75;9.00;;;7.00;99.90;;;;;;5112272;28;20374;-81
2021/05/18 17:27:56;;;;;;;13.52;8.77;;;7.00;99.90;;;;;;5112558;28;20383;-81
2021/05/18 17:30:26;;;;;;;9.70;7.50;;;6.90;99.90;;;;;;5110915;28;20480;-81
2021/05/18 17:32:54;;;;;;;10.55;7.10;;;6.90;99.90;;;;;;5112094;28;20431;-81
2021/05/18 17:35:23;;;;;;;8.43;6.30;;;7.00;99.90;;;;;;5094932;28;20384;-81
2021/05/18 17:37:50;;;;;;;6.07;4.67;;;7.00;99.90;;;;;;5092169;28;20395;-81
2021/05/18 17:40:18;;;;;;;6.77;3.80;;;7.10;99.90;;;;;;5092063;28;20537;-81
2021/05/18 17:42:45;;;;;;;5.95;3.22;;;7.20;99.90;;;;;;5099532;28;20791;-81
2021/05/18 17:45:13;;;;;;;6.63;3.33;;;7.20;99.90;;;;;;5112355;28;20432;-81
2021/05/18 17:47:41;;;;;;;4.72;2.72;;;7.20;99.90;;;;;;5093343;28;20394;-81
2021/05/18 17:50:12;;;;;;;5.13;3.00;;;7.20;99.90;;;;;;5112041;28;20367;-81
2021/05/18 17:52:39;;;;;;;5.72;3.55;;;7.20;99.90;;;;;;5111437;28;20373;-81
2021/05/18 17:55:09;;;;;;;3.40;2.92;;;7.20;99.90;;;;;;5120440;27;20936;-81
2021/05/18 17:57:36;;;;;;;4.60;3.00;;;7.30;99.90;;;;;;5114671;27;20406;-81
2021/05/18 18:00:05;;;;;;;4.45;2.70;;;7.30;99.90;;;;;;5111587;28;20371;-81
2021/05/18 18:02:32;;;;;;;4.93;2.73;;;7.30;99.90;;;;;;5111356;28;20414;-82
2021/05/18 18:04:59;;;;;;;5.32;2.83;;;7.30;99.90;;;;;;5111314;28;20398;-84
2021/05/18 18:07:26;;;;;;;6.90;2.85;;;7.30;99.90;;;;;;5111396;28;20379;-84
2021/05/18 18:09:55;;;;;;;6.73;2.83;;;7.30;99.90;;;;;;5111871;28;20465;-84
2021/05/18 18:12:22;;;;;;;7.38;3.17;;;7.20;99.90;;;;;;5111724;28;20386;-84
2021/05/18 18:14:49;;;;;;;6.20;3.80;;;7.30;99.90;;;;;;5110844;28;20379;-83
2021/05/18 18:17:19;;;;;;;7.67;3.43;;;7.30;99.90;;;;;;5111544;28;20877;-84
2021/05/18 18:19:46;;;;;;;6.38;3.42;;;7.30;99.90;;;;;;5092653;28;20423;-83
2021/05/18 18:22:13;;;;;;;6.70;3.67;;;7.30;99.90;;;;;;5109423;28;20711;-83